createdAt,value
2022-10-30T00:00:45.431Z,80.30
2022-10-30T00:03:16.373Z,80.59
2022-10-30T00:05:44.868Z,80.57
2022-10-30T00:08:13.553Z,80.47
2022-10-30T00:10:41.279Z,80.84
2022-10-30T00:13:08.168Z,80.52
2022-10-30T00:15:35.236Z,80.83
2022-10-30T00:18:02.022Z,80.72
2022-10-30T00:20:29.327Z,80.83
2022-10-30T00:22:56.253Z,80.71
2022-10-30T00:25:24.178Z,80.79
2022-10-30T00:27:50.818Z,80.76
2022-10-30T00:30:18.963Z,81.01
2022-10-30T00:32:45.827Z,80.73
2022-10-30T00:35:12.959Z,81.21
2022-10-30T00:37:39.723Z,81.04
2022-10-30T00:40:07.577Z,81.21
2022-10-30T00:42:34.697Z,81.37
2022-10-30T00:45:01.663Z,81.28
2022-10-30T00:47:36.479Z,81.52
2022-10-30T00:50:02.958Z,81.72
2022-10-30T00:52:34.911Z,81.72
2022-10-30T00:55:12.201Z,81.39
2022-10-30T00:57:39.811Z,81.82
2022-10-30T01:00:10.385Z,81.83
2022-10-30T01:02:38.914Z,81.86
2022-10-30T01:07:36.641Z,82.07
2022-10-30T01:10:03.572Z,82.20
2022-10-30T01:12:32.509Z,82.33
2022-10-30T01:15:00.464Z,82.06
2022-10-30T01:17:30.901Z,82.34
2022-10-30T01:20:08.463Z,82.10
2022-10-30T01:22:59.933Z,82.27
2022-10-30T01:25:27.050Z,82.32
2022-10-30T01:28:38.886Z,82.10
2022-10-30T01:31:24.739Z,82.42
2022-10-30T01:34:17.260Z,82.43
2022-10-30T01:37:00.549Z,82.56
2022-10-30T01:39:35.114Z,82.69
2022-10-30T01:42:28.701Z,82.61
2022-10-30T01:44:55.803Z,82.89
2022-10-30T01:47:31.481Z,82.79
2022-10-30T01:50:20.403Z,82.99
2022-10-30T01:53:00.752Z,82.95
2022-10-30T01:55:41.561Z,83.12
2022-10-30T01:58:34.905Z,82.64
2022-10-30T02:01:02.254Z,82.97
2022-10-30T02:03:29.093Z,82.97
2022-10-30T02:05:55.730Z,82.96
2022-10-30T02:08:24.942Z,83.13
2022-10-30T02:10:53.079Z,83.15
2022-10-30T02:13:20.491Z,83.20
2022-10-30T02:15:50.260Z,83.31
2022-10-30T02:18:16.887Z,83.42
2022-10-30T02:20:46.112Z,83.28
2022-10-30T02:23:18.866Z,83.51
2022-10-30T02:25:46.058Z,83.75
2022-10-30T02:28:12.944Z,83.64
2022-10-30T02:30:44.827Z,83.72
2022-10-30T02:33:13.948Z,83.71
2022-10-30T02:35:40.598Z,83.80
2022-10-30T02:38:07.460Z,83.87
2022-10-30T02:40:37.400Z,84.08
2022-10-30T02:43:03.937Z,84.44
2022-10-30T02:45:33.511Z,84.02
2022-10-30T02:48:01.131Z,84.09
2022-10-30T02:50:30.830Z,84.36
2022-10-30T02:53:00.124Z,83.99
2022-10-30T02:55:27.487Z,84.42
2022-10-30T02:57:58.890Z,84.48
2022-10-30T03:00:25.444Z,84.36
2022-10-30T03:02:59.355Z,84.28
2022-10-30T03:05:26.706Z,84.73
2022-10-30T03:07:54.926Z,84.75
2022-10-30T03:10:21.824Z,85.10
2022-10-30T03:12:48.377Z,84.95
2022-10-30T03:15:14.929Z,85.14
2022-10-30T03:20:13.838Z,85.13
2022-10-30T03:22:40.479Z,85.22
2022-10-30T03:25:07.316Z,85.50
2022-10-30T03:27:33.941Z,85.24
2022-10-30T03:30:00.537Z,85.28
2022-10-30T03:32:30.119Z,85.61
2022-10-30T03:34:59.121Z,85.69
2022-10-30T03:37:27.971Z,85.73
2022-10-30T03:39:54.520Z,85.75
2022-10-30T03:42:21.256Z,85.54
2022-10-30T03:44:47.773Z,85.42
2022-10-30T03:47:14.540Z,85.72
2022-10-30T03:49:41.182Z,85.51
2022-10-30T03:52:07.788Z,85.93
2022-10-30T03:54:34.600Z,86.00
2022-10-30T03:57:03.557Z,85.88
2022-10-30T03:59:33.113Z,85.96
2022-10-30T04:01:59.880Z,85.87
2022-10-30T04:04:28.823Z,86.09
2022-10-30T04:06:55.458Z,86.01
2022-10-30T04:09:22.252Z,85.92
2022-10-30T04:11:48.841Z,85.76
2022-10-30T04:14:15.482Z,86.32
2022-10-30T04:16:42.350Z,86.11
2022-10-30T04:19:09.058Z,86.28
2022-10-30T04:21:35.797Z,86.14
2022-10-30T04:24:04.824Z,86.14
2022-10-30T04:26:31.398Z,86.16
2022-10-30T04:28:58.352Z,86.56
2022-10-30T04:31:27.209Z,86.41
2022-10-30T04:33:53.881Z,86.79
2022-10-30T04:36:21.907Z,86.92
2022-10-30T04:38:48.572Z,86.71
2022-10-30T04:41:15.402Z,86.83
2022-10-30T04:43:42.005Z,86.94
2022-10-30T04:46:08.587Z,86.88
2022-10-30T04:48:37.291Z,86.89
2022-10-30T04:51:06.279Z,86.99
2022-10-30T04:53:33.063Z,87.04
2022-10-30T04:55:59.854Z,86.99
2022-10-30T04:58:26.487Z,87.19
2022-10-30T05:00:53.487Z,87.12
2022-10-30T05:03:24.804Z,87.27
2022-10-30T05:06:01.239Z,87.35
2022-10-30T05:08:28.791Z,87.64
2022-10-30T05:10:56.207Z,87.16
2022-10-30T05:13:25.622Z,87.23
2022-10-30T05:15:55.101Z,87.61
2022-10-30T05:18:21.658Z,87.62
2022-10-30T05:20:48.498Z,87.65
2022-10-30T05:23:15.428Z,87.77
2022-10-30T05:25:42.119Z,87.75
2022-10-30T05:28:09.969Z,88.04
2022-10-30T05:30:36.871Z,88.13
2022-10-30T05:33:05.787Z,88.16
2022-10-30T05:35:34.031Z,88.49
2022-10-30T05:38:02.008Z,88.49
2022-10-30T05:40:28.748Z,88.70
2022-10-30T05:42:55.815Z,88.57
2022-10-30T05:45:22.666Z,88.59
2022-10-30T05:48:04.293Z,88.73
2022-10-30T05:50:32.129Z,88.77
2022-10-30T05:53:05.899Z,88.90
2022-10-30T05:55:33.248Z,89.06
2022-10-30T05:58:02.688Z,88.97
2022-10-30T06:00:31.495Z,89.06
2022-10-30T06:03:05.963Z,89.15
2022-10-30T06:05:35.096Z,88.94
2022-10-30T06:08:02.618Z,88.94
2022-10-30T06:10:29.767Z,89.39
2022-10-30T06:12:58.660Z,89.27
2022-10-30T06:15:26.402Z,89.41
2022-10-30T06:17:55.550Z,89.32
2022-10-30T06:20:26.714Z,89.50
2022-10-30T06:23:01.097Z,89.32
2022-10-30T06:25:29.534Z,89.31
2022-10-30T06:27:56.531Z,89.28
2022-10-30T06:30:26.602Z,89.64
2022-10-30T06:32:58.653Z,89.45
2022-10-30T06:35:25.527Z,89.34
2022-10-30T06:37:53.639Z,89.73
2022-10-30T06:40:23.008Z,89.46
2022-10-30T06:42:51.626Z,89.53
2022-10-30T06:45:19.918Z,89.50
2022-10-30T06:47:46.896Z,89.68
2022-10-30T06:50:17.523Z,89.46
2022-10-30T06:52:44.912Z,89.35
2022-10-30T06:55:11.909Z,89.53
2022-10-30T06:57:38.672Z,89.29
2022-10-30T07:00:06.892Z,89.39
2022-10-30T07:02:34.987Z,89.34
2022-10-30T07:05:03.944Z,89.21
2022-10-30T07:07:30.707Z,88.97
2022-10-30T07:09:57.449Z,88.76
2022-10-30T07:12:24.211Z,88.99
2022-10-30T07:14:50.818Z,88.94
2022-10-30T07:17:17.370Z,88.85
2022-10-30T07:19:43.913Z,88.73
2022-10-30T07:22:10.798Z,88.61
2022-10-30T07:24:37.473Z,88.17
2022-10-30T07:27:06.572Z,87.76
2022-10-30T07:29:33.517Z,88.19
2022-10-30T07:32:03.817Z,88.23
2022-10-30T07:34:31.599Z,88.20
2022-10-30T07:37:00.761Z,88.06
2022-10-30T07:39:27.353Z,88.02
2022-10-30T07:41:54.189Z,88.09
2022-10-30T07:44:21.330Z,87.66
2022-10-30T07:46:47.888Z,87.62
2022-10-30T07:49:17.198Z,87.72
2022-10-30T07:51:43.820Z,87.62
2022-10-30T07:54:13.048Z,87.71
2022-10-30T07:56:39.687Z,87.77
2022-10-30T07:59:06.341Z,87.98
2022-10-30T08:01:33.405Z,87.78
2022-10-30T08:04:00.047Z,87.80
2022-10-30T08:06:27.357Z,87.71
2022-10-30T08:08:54.471Z,87.82
2022-10-30T08:11:21.085Z,87.94
2022-10-30T08:13:47.726Z,87.61
2022-10-30T08:16:14.979Z,87.63
2022-10-30T08:18:44.391Z,87.37
2022-10-30T08:21:11.157Z,87.44
2022-10-30T08:23:38.044Z,87.21
2022-10-30T08:26:05.762Z,87.24
2022-10-30T08:28:35.123Z,87.47
2022-10-30T08:31:04.223Z,86.97
2022-10-30T08:33:30.774Z,86.81
2022-10-30T08:35:59.469Z,86.64
2022-10-30T08:38:27.446Z,86.42
2022-10-30T08:40:54.643Z,86.50
2022-10-30T08:43:21.981Z,86.23
2022-10-30T08:45:48.568Z,86.11
2022-10-30T08:48:16.538Z,85.75
2022-10-30T08:50:43.915Z,85.88
2022-10-30T08:53:12.894Z,85.21
2022-10-30T08:55:40.426Z,83.58
2022-10-30T08:58:07.167Z,81.77
2022-10-30T09:00:34.351Z,80.61
2022-10-30T09:03:01.868Z,79.50
2022-10-30T09:05:29.366Z,78.52
2022-10-30T09:07:58.190Z,77.98
2022-10-30T09:10:25.122Z,77.31
2022-10-30T09:12:56.209Z,77.10
2022-10-30T09:15:23.470Z,76.51
2022-10-30T09:17:59.184Z,75.87
2022-10-30T09:20:26.798Z,75.69
2022-10-30T09:22:53.547Z,75.24
2022-10-30T09:25:20.745Z,75.42
2022-10-30T09:27:47.599Z,75.33
2022-10-30T09:30:15.112Z,75.21
2022-10-30T09:32:41.740Z,75.39
2022-10-30T09:35:11.866Z,75.09
2022-10-30T09:37:39.101Z,74.79
2022-10-30T09:40:13.254Z,75.00
2022-10-30T09:42:45.913Z,74.46
2022-10-30T09:45:29.986Z,73.91
2022-10-30T09:48:10.308Z,73.35
2022-10-30T09:50:54.763Z,73.36
2022-10-30T09:53:46.215Z,73.66
2022-10-30T09:56:23.911Z,73.89
2022-10-30T09:59:05.895Z,73.23
2022-10-30T10:02:00.255Z,74.04
2022-10-30T10:04:40.169Z,73.70
2022-10-30T10:07:35.328Z,73.11
2022-10-30T10:10:08.290Z,72.99
2022-10-30T10:12:48.484Z,72.68
2022-10-30T10:15:42.296Z,72.13
2022-10-30T10:18:20.767Z,72.46
2022-10-30T10:20:51.590Z,72.22
2022-10-30T10:23:26.434Z,72.34
2022-10-30T10:25:54.431Z,71.96
2022-10-30T10:28:52.857Z,72.09
2022-10-30T10:31:38.771Z,71.64
2022-10-30T10:34:43.160Z,71.69
2022-10-30T10:37:39.171Z,70.88
2022-10-30T10:40:29.604Z,70.60
2022-10-30T10:43:28.754Z,70.55
2022-10-30T10:46:16.594Z,70.06
2022-10-30T10:49:19.513Z,69.69
2022-10-30T10:51:54.260Z,69.38
2022-10-30T10:54:31.246Z,69.07
2022-10-30T10:56:59.768Z,68.66
2022-10-30T10:59:41.240Z,68.77
2022-10-30T11:02:10.673Z,68.58
2022-10-30T11:04:41.186Z,67.93
2022-10-30T11:07:32.629Z,67.97
2022-10-30T11:09:59.307Z,67.29
2022-10-30T11:12:33.653Z,67.22
2022-10-30T11:15:18.824Z,66.31
2022-10-30T11:18:16.484Z,66.11
2022-10-30T11:21:10.785Z,65.96
2022-10-30T11:23:46.147Z,65.40
2022-10-30T11:26:18.846Z,65.10
2022-10-30T11:28:59.078Z,65.02
2022-10-30T11:31:38.379Z,64.67
2022-10-30T11:34:17.252Z,64.29
2022-10-30T11:37:00.936Z,64.15
2022-10-30T11:39:34.197Z,64.41
2022-10-30T11:42:01.057Z,64.13
2022-10-30T11:44:35.233Z,64.56
2022-10-30T11:47:02.964Z,64.87
2022-10-30T11:49:39.209Z,64.57
2022-10-30T11:52:07.787Z,64.30
2022-10-30T11:54:42.018Z,64.21
2022-10-30T11:57:20.875Z,64.05
2022-10-30T11:59:48.083Z,63.58
2022-10-30T12:02:27.538Z,63.73
2022-10-30T12:05:03.732Z,63.77
2022-10-30T12:07:33.233Z,63.76
2022-10-30T12:10:01.900Z,63.97
2022-10-30T12:12:39.067Z,64.33
2022-10-30T12:15:15.124Z,64.64
2022-10-30T12:17:53.049Z,64.68
2022-10-30T12:20:20.682Z,64.46
2022-10-30T12:22:47.362Z,64.86
2022-10-30T12:25:33.497Z,64.63
2022-10-30T12:28:15.971Z,64.76
2022-10-30T12:30:54.901Z,64.63
2022-10-30T12:33:29.990Z,64.25
2022-10-30T12:35:59.813Z,64.47
2022-10-30T12:38:43.043Z,64.60
2022-10-30T12:41:40.365Z,64.85
2022-10-30T12:44:22.329Z,64.90
2022-10-30T12:46:56.782Z,64.59
2022-10-30T12:49:27.994Z,64.88
2022-10-30T12:52:10.658Z,64.96
2022-10-30T12:54:49.740Z,65.02
2022-10-30T12:57:21.001Z,64.66
2022-10-30T13:00:15.713Z,64.55
2022-10-30T13:03:06.363Z,63.92
2022-10-30T13:05:44.432Z,63.91
2022-10-30T13:08:20.811Z,63.23
2022-10-30T13:10:56.429Z,62.73
2022-10-30T13:13:34.244Z,62.58
2022-10-30T13:16:09.175Z,62.42
2022-10-30T13:18:38.376Z,62.40
2022-10-30T13:21:20.984Z,62.56
2022-10-30T13:24:15.610Z,63.04
2022-10-30T13:26:48.566Z,63.34
2022-10-30T13:29:42.514Z,63.91
2022-10-30T13:32:21.340Z,63.87
2022-10-30T13:35:16.625Z,64.49
2022-10-30T13:37:57.968Z,64.73
2022-10-30T13:40:51.057Z,64.50
2022-10-30T13:43:23.841Z,64.77
2022-10-30T13:45:53.240Z,64.79
2022-10-30T13:48:44.616Z,65.12
2022-10-30T13:51:17.428Z,65.10
2022-10-30T13:53:49.014Z,65.02
2022-10-30T13:56:22.078Z,64.83
2022-10-30T13:59:10.064Z,65.41
2022-10-30T14:01:46.915Z,65.29
2022-10-30T14:04:29.717Z,65.40
2022-10-30T14:07:46.734Z,65.44
2022-10-30T14:10:31.493Z,65.27
2022-10-30T14:12:58.561Z,65.30
2022-10-30T14:15:31.608Z,65.08
2022-10-30T14:18:13.522Z,65.16
2022-10-30T14:20:50.569Z,65.02
2022-10-30T14:23:22.097Z,64.98
2022-10-30T14:26:06.984Z,65.54
2022-10-30T14:28:40.653Z,65.43
2022-10-30T14:31:10.439Z,65.34
2022-10-30T14:33:39.979Z,65.60
2022-10-30T14:36:16.214Z,65.65
2022-10-30T14:38:51.788Z,65.38
2022-10-30T14:41:25.390Z,65.13
2022-10-30T14:43:58.034Z,65.03
2022-10-30T14:46:34.536Z,65.22
2022-10-30T14:49:10.434Z,65.20
2022-10-30T14:51:49.789Z,65.22
2022-10-30T14:54:30.921Z,65.48
2022-10-30T14:56:57.739Z,65.48
2022-10-30T14:59:34.056Z,65.45
2022-10-30T15:02:12.994Z,65.67
2022-10-30T15:05:23.764Z,66.19
2022-10-30T15:08:06.667Z,66.25
2022-10-30T15:10:36.397Z,65.86
2022-10-30T15:13:23.109Z,66.17
2022-10-30T15:16:02.095Z,66.44
2022-10-30T15:18:30.823Z,66.11
2022-10-30T15:21:04.679Z,66.50
2022-10-30T15:23:34.467Z,66.10
2022-10-30T15:26:17.273Z,65.94
2022-10-30T15:28:47.937Z,66.30
2022-10-30T15:31:17.251Z,66.66
2022-10-30T15:33:47.045Z,66.96
2022-10-30T15:36:22.060Z,67.45
2022-10-30T15:39:04.078Z,67.51
2022-10-30T15:41:31.799Z,68.00
2022-10-30T15:44:01.651Z,67.83
2022-10-30T15:46:28.388Z,68.22
2022-10-30T15:48:55.219Z,68.66
2022-10-30T15:51:27.013Z,68.82
2022-10-30T15:53:59.893Z,68.78
2022-10-30T15:57:08.231Z,69.13
2022-10-30T15:59:33.779Z,69.65
2022-10-30T16:02:00.881Z,69.79
2022-10-30T16:04:33.044Z,69.68
2022-10-30T16:07:15.778Z,69.83
2022-10-30T16:10:09.234Z,69.80
2022-10-30T16:12:36.017Z,70.10
2022-10-30T16:15:08.617Z,70.34
2022-10-30T16:17:37.777Z,70.69
2022-10-30T16:20:04.897Z,71.13
2022-10-30T16:22:39.205Z,71.38
2022-10-30T16:25:13.312Z,71.82
2022-10-30T16:27:44.738Z,71.79
2022-10-30T16:30:15.512Z,71.48
2022-10-30T16:32:51.548Z,71.03
2022-10-30T16:35:22.332Z,71.08
2022-10-30T16:37:50.696Z,71.04
2022-10-30T16:40:22.720Z,71.17
2022-10-30T16:42:58.680Z,71.46
2022-10-30T16:45:29.057Z,71.38
2022-10-30T16:50:45.451Z,71.80
2022-10-30T16:53:24.290Z,72.16
2022-10-30T16:55:52.805Z,72.30
2022-10-30T16:58:20.985Z,72.51
2022-10-30T17:00:56.975Z,72.64
2022-10-30T17:03:28.198Z,72.84
2022-10-30T17:06:00.712Z,73.32
2022-10-30T17:08:35.796Z,73.31
2022-10-30T17:11:05.401Z,73.59
2022-10-30T17:13:35.015Z,73.79
2022-10-30T17:16:28.221Z,73.49
2022-10-30T17:18:57.169Z,74.09
2022-10-30T17:21:46.123Z,74.51
2022-10-30T17:24:22.354Z,74.50
2022-10-30T17:26:57.742Z,74.85
2022-10-30T17:29:42.717Z,74.79
2022-10-30T17:32:20.305Z,75.09
2022-10-30T17:34:48.342Z,75.24
2022-10-30T17:37:15.027Z,75.29
2022-10-30T17:39:41.743Z,75.58
2022-10-30T17:42:12.394Z,75.79
2022-10-30T17:44:39.940Z,75.88
2022-10-30T17:47:16.426Z,76.08
2022-10-30T17:49:43.465Z,76.07
2022-10-30T17:52:13.381Z,76.23
2022-10-30T17:54:41.899Z,76.65
2022-10-30T17:57:14.862Z,76.78
2022-10-30T17:59:41.985Z,76.74
2022-10-30T18:02:20.133Z,76.69
2022-10-30T18:04:47.932Z,76.89
2022-10-30T18:07:16.869Z,77.18
2022-10-30T18:09:44.638Z,77.23
2022-10-30T18:12:14.626Z,77.47
2022-10-30T18:14:43.269Z,77.38
2022-10-30T18:17:10.597Z,77.47
2022-10-30T18:19:37.608Z,77.67
2022-10-30T18:22:04.502Z,77.78
2022-10-30T18:24:31.534Z,77.86
2022-10-30T18:26:58.693Z,77.80
2022-10-30T18:29:25.341Z,78.03
2022-10-30T18:31:51.972Z,78.07
2022-10-30T18:34:21.987Z,78.35
2022-10-30T18:36:49.445Z,78.30
2022-10-30T18:39:16.350Z,78.40
2022-10-30T18:41:45.394Z,78.48
2022-10-30T18:44:16.607Z,78.68
2022-10-30T18:46:44.586Z,78.67
2022-10-30T18:49:11.492Z,78.71
2022-10-30T18:51:38.477Z,78.84
2022-10-30T18:54:13.824Z,78.69
2022-10-30T18:56:40.535Z,78.75
2022-10-30T18:59:07.213Z,78.92
2022-10-30T19:01:33.915Z,79.08
2022-10-30T19:04:04.756Z,79.07
2022-10-30T19:06:32.993Z,78.94
2022-10-30T19:08:59.774Z,79.14
2022-10-30T19:11:31.328Z,79.04
2022-10-30T19:13:58.704Z,79.24
2022-10-30T19:16:25.556Z,79.11
2022-10-30T19:18:54.653Z,79.42
2022-10-30T19:21:25.447Z,79.62
2022-10-30T19:23:52.336Z,79.67
2022-10-30T19:26:21.748Z,79.88
2022-10-30T19:28:48.587Z,79.98
2022-10-30T19:31:17.790Z,80.11
2022-10-30T19:33:45.335Z,80.26
2022-10-30T19:36:30.236Z,80.15
2022-10-30T19:38:57.414Z,80.16
2022-10-30T19:41:25.000Z,80.25
2022-10-30T19:43:52.627Z,80.39
2022-10-30T19:46:19.649Z,80.42
2022-10-30T19:49:01.591Z,80.36
2022-10-30T19:51:28.964Z,80.79
2022-10-30T19:53:56.607Z,80.76
2022-10-30T19:56:24.195Z,80.63
2022-10-30T19:58:51.017Z,80.85
2022-10-30T20:01:17.900Z,81.15
2022-10-30T20:03:44.684Z,81.05
2022-10-30T20:06:14.980Z,80.97
2022-10-30T20:08:43.742Z,80.94
2022-10-30T20:11:10.400Z,81.06
2022-10-30T20:13:37.278Z,81.21
2022-10-30T20:16:05.356Z,81.48
2022-10-30T20:18:34.095Z,81.34
2022-10-30T20:21:03.708Z,81.59
2022-10-30T20:23:30.558Z,81.61
2022-10-30T20:26:17.852Z,81.63
2022-10-30T20:28:45.067Z,81.56
2022-10-30T20:31:12.761Z,81.83
2022-10-30T20:33:39.719Z,81.96
2022-10-30T20:36:12.594Z,81.99
2022-10-30T20:38:40.309Z,81.93
2022-10-30T20:41:08.539Z,81.87
2022-10-30T20:43:37.566Z,82.13
2022-10-30T20:46:09.461Z,82.16
2022-10-30T20:48:36.301Z,82.30
2022-10-30T20:51:03.811Z,82.62
2022-10-30T20:53:30.694Z,82.60
2022-10-30T20:55:57.748Z,82.66
2022-10-30T20:58:27.150Z,82.63
2022-10-30T21:00:55.749Z,82.58
2022-10-30T21:03:22.502Z,82.83
2022-10-30T21:05:58.629Z,82.70
2022-10-30T21:08:26.794Z,82.78
2022-10-30T21:10:53.902Z,82.64
2022-10-30T21:13:20.597Z,82.62
2022-10-30T21:15:47.651Z,82.88
2022-10-30T21:18:14.201Z,82.78
2022-10-30T21:20:46.076Z,82.91
2022-10-30T21:23:15.290Z,82.96
2022-10-30T21:25:42.074Z,83.20
2022-10-30T21:28:09.150Z,83.13
2022-10-30T21:30:35.771Z,82.90
2022-10-30T21:33:05.129Z,82.98
2022-10-30T21:35:31.890Z,83.23
2022-10-30T21:37:58.566Z,83.25
2022-10-30T21:40:25.457Z,83.03
2022-10-30T21:42:52.206Z,83.14
2022-10-30T21:45:19.023Z,83.36
2022-10-30T21:47:47.887Z,83.21
2022-10-30T21:50:14.686Z,83.19
2022-10-30T21:52:42.217Z,83.52
2022-10-30T21:55:09.788Z,83.57
2022-10-30T21:57:38.911Z,83.91
2022-10-30T22:00:07.453Z,83.97
2022-10-30T22:02:34.504Z,83.86
2022-10-30T22:05:01.132Z,83.84
2022-10-30T22:07:27.973Z,84.09
2022-10-30T22:09:54.825Z,83.87
2022-10-30T22:12:21.482Z,84.08
2022-10-30T22:14:48.376Z,84.17
2022-10-30T22:17:15.000Z,84.30
2022-10-30T22:19:42.551Z,84.31
2022-10-30T22:22:09.379Z,84.40
2022-10-30T22:24:36.070Z,84.38
2022-10-30T22:27:03.031Z,84.53
2022-10-30T22:29:34.473Z,84.85
2022-10-30T22:32:01.334Z,84.66
2022-10-30T22:34:28.037Z,84.62
2022-10-30T22:36:54.810Z,84.67
2022-10-30T22:39:21.547Z,84.91
2022-10-30T22:41:48.344Z,85.02
2022-10-30T22:44:19.651Z,84.62
2022-10-30T22:46:46.603Z,84.80
2022-10-30T22:49:13.365Z,84.85
2022-10-30T22:51:40.279Z,85.02
2022-10-30T22:54:10.148Z,85.20
2022-10-30T22:56:37.311Z,85.00
2022-10-30T22:59:07.008Z,85.25
2022-10-30T23:01:36.149Z,85.36
2022-10-30T23:04:04.340Z,85.51
2022-10-30T23:06:33.178Z,85.57
2022-10-30T23:09:04.018Z,85.66
2022-10-30T23:11:31.079Z,85.66
2022-10-30T23:13:58.040Z,85.65
2022-10-30T23:16:26.349Z,86.16
2022-10-30T23:18:58.281Z,86.12
2022-10-30T23:21:29.318Z,86.09
2022-10-30T23:23:58.823Z,86.16
2022-10-30T23:26:31.504Z,86.35
2022-10-30T23:28:59.426Z,86.51
2022-10-30T23:31:46.683Z,86.75
2022-10-30T23:34:16.342Z,86.43
2022-10-30T23:36:44.113Z,86.76
2022-10-30T23:39:16.726Z,86.84
2022-10-30T23:41:44.051Z,86.70
2022-10-30T23:44:15.370Z,86.75
2022-10-30T23:46:42.531Z,86.74
2022-10-30T23:49:09.216Z,86.99
2022-10-30T23:51:36.020Z,86.83
2022-10-30T23:54:03.043Z,87.15
2022-10-30T23:56:30.118Z,87.43
2022-10-30T23:58:57.361Z,87.08
